Time;durP1;ratioP1;P1;durP2;ratioP2;P2;SDS_P1;SDS_P2;PMS_P1;PMS_P2;Temp;Humidity;BMP_temperature;BMP_pressure;BME280_temperature;BME280_humidity;BME280_pressure;Samples;Min_cycle;Max_cycle;Signal;HPM_P1;HPM_P2
2022/04/26 03:37:39;;;;;;;34.65;22.08;;;7.40;99.90;;;;;;5028293;28;20053;-67
2022/04/26 03:40:05;;;;;;;41.85;23.90;;;7.30;99.90;;;;;;5029218;28;20041;-67
2022/04/26 03:42:31;;;;;;;39.05;23.92;;;7.30;99.90;;;;;;5026240;28;20590;-68
2022/04/26 03:44:56;;;;;;;33.63;22.90;;;7.30;99.90;;;;;;5029376;28;20156;-66
2022/04/26 03:47:23;;;;;;;37.20;21.85;;;7.40;99.90;;;;;;5027091;28;20081;-67
2022/04/26 03:49:49;;;;;;;30.20;21.42;;;7.30;99.90;;;;;;5028861;28;20043;-68
2022/04/26 03:52:14;;;;;;;29.20;21.85;;;7.40;99.90;;;;;;5028428;28;20734;-67
2022/04/26 03:54:40;;;;;;;36.97;22.13;;;7.30;99.90;;;;;;5028325;28;20095;-67
2022/04/26 03:57:06;;;;;;;44.92;23.88;;;7.40;99.90;;;;;;5026370;28;21813;-67
2022/04/26 03:59:31;;;;;;;42.00;23.60;;;7.40;99.90;;;;;;5026344;28;20128;-67
2022/04/26 04:01:57;;;;;;;36.42;23.20;;;7.40;99.90;;;;;;5031252;28;20042;-66
2022/04/26 04:04:23;;;;;;;33.20;22.13;;;7.40;99.90;;;;;;5025973;28;20120;-67
2022/04/26 04:06:48;;;;;;;39.53;22.63;;;7.30;99.90;;;;;;5026136;28;20045;-67
2022/04/26 04:09:14;;;;;;;33.22;22.52;;;7.30;99.90;;;;;;5027072;28;20108;-67
2022/04/26 04:11:40;;;;;;;45.05;21.98;;;7.30;99.90;;;;;;5026850;28;20876;-67
2022/04/26 04:14:05;;;;;;;33.60;20.20;;;7.30;99.90;;;;;;5028511;28;20064;-67
2022/04/26 04:16:31;;;;;;;30.45;21.45;;;7.30;99.90;;;;;;5027375;28;20405;-67
2022/04/26 04:21:42;;;;;;;40.17;21.40;;;7.30;99.90;;;;;;5024771;28;20077;-67
2022/04/26 04:24:08;;;;;;;34.70;20.98;;;7.30;99.90;;;;;;5026550;28;20469;-67
2022/04/26 04:26:33;;;;;;;30.05;19.70;;;7.30;99.90;;;;;;5011381;28;20519;-67
2022/04/26 04:28:59;;;;;;;34.08;20.55;;;7.30;99.90;;;;;;5013954;28;20045;-67
2022/04/26 04:31:25;;;;;;;41.05;22.15;;;7.30;99.90;;;;;;5027399;28;20049;-68
2022/04/26 04:33:51;;;;;;;28.83;19.95;;;7.30;99.90;;;;;;5027666;28;20095;-67
2022/04/26 04:36:16;;;;;;;33.17;19.67;;;7.30;99.90;;;;;;5027333;28;20056;-67
2022/04/26 04:38:42;;;;;;;31.15;21.42;;;7.30;99.90;;;;;;5025968;28;20045;-66
2022/04/26 04:41:08;;;;;;;29.08;20.63;;;7.30;99.90;;;;;;5027332;28;20053;-66
2022/04/26 04:43:35;;;;;;;31.73;21.00;;;7.30;99.90;;;;;;5027129;28;20068;-66
2022/04/26 04:46:01;;;;;;;37.53;20.13;;;7.40;99.90;;;;;;5024252;28;20899;-66
2022/04/26 04:48:26;;;;;;;43.97;20.13;;;7.40;99.90;;;;;;5020179;28;20406;-67
2022/04/26 04:50:52;;;;;;;32.70;19.65;;;7.40;99.90;;;;;;5023407;28;20041;-66
2022/04/26 04:53:19;;;;;;;41.17;20.27;;;7.40;99.90;;;;;;5026461;28;20045;-67
2022/04/26 04:55:45;;;;;;;31.95;18.98;;;7.40;99.90;;;;;;5022274;28;20186;-66
2022/04/26 04:58:10;;;;;;;26.00;18.42;;;7.40;99.90;;;;;;5022282;28;20533;-67
2022/04/26 05:00:36;;;;;;;34.60;19.65;;;7.40;99.90;;;;;;5021315;28;20399;-66
2022/04/26 05:03:02;;;;;;;44.00;22.23;;;7.30;99.90;;;;;;5021903;28;20046;-67
2022/04/26 05:05:28;;;;;;;39.50;19.83;;;7.30;99.90;;;;;;5021969;28;20044;-67
2022/04/26 05:07:54;;;;;;;35.42;21.23;;;7.30;99.90;;;;;;5018689;28;20045;-66
2022/04/26 05:10:20;;;;;;;39.85;19.58;;;7.30;99.90;;;;;;5023255;28;20049;-66
2022/04/26 05:12:45;;;;;;;35.50;19.70;;;7.30;99.90;;;;;;5020847;28;20160;-66
2022/04/26 05:15:12;;;;;;;28.52;19.88;;;7.40;99.90;;;;;;5022974;28;20414;-66
2022/04/26 05:17:38;;;;;;;33.45;21.48;;;7.40;99.90;;;;;;5024535;28;20046;-67
2022/04/26 05:20:05;;;;;;;31.20;19.65;;;7.40;99.90;;;;;;5021117;28;20038;-66
2022/04/26 05:22:31;;;;;;;35.17;20.48;;;7.40;99.90;;;;;;5019398;28;20061;-67
2022/04/26 05:24:57;;;;;;;28.05;18.48;;;7.40;99.90;;;;;;5021357;28;20037;-66
2022/04/26 05:27:27;;;;;;;45.50;20.20;;;7.50;99.90;;;;;;5022530;28;20040;-66
2022/04/26 05:29:53;;;;;;;32.33;19.02;;;7.50;99.90;;;;;;5024515;28;20088;-66
2022/04/26 05:32:26;;;;;;;34.25;20.25;;;7.60;99.90;;;;;;5023433;28;20505;-66
2022/04/26 05:34:57;;;;;;;33.15;19.15;;;7.60;99.90;;;;;;5026163;28;20045;-66
2022/04/26 05:37:25;;;;;;;38.47;20.20;;;7.60;99.90;;;;;;5026091;28;20045;-66
2022/04/26 05:39:50;;;;;;;33.63;18.35;;;7.70;99.90;;;;;;5024225;28;20041;-66
2022/04/26 05:42:16;;;;;;;34.70;20.20;;;7.70;99.90;;;;;;5024846;28;20049;-66
2022/04/26 05:44:42;;;;;;;32.08;18.58;;;7.80;99.90;;;;;;5029269;28;20608;-66
2022/04/26 05:47:09;;;;;;;33.80;18.50;;;7.80;99.90;;;;;;5027453;28;20050;-66
2022/04/26 05:49:36;;;;;;;29.42;18.13;;;7.90;99.90;;;;;;5027949;28;20144;-66
2022/04/26 05:52:02;;;;;;;30.17;18.42;;;7.90;99.90;;;;;;5027639;28;20095;-67
2022/04/26 05:54:29;;;;;;;25.40;18.30;;;8.00;99.90;;;;;;5022695;28;20406;-66
2022/04/26 05:56:56;;;;;;;30.80;17.45;;;8.00;99.90;;;;;;5026948;28;20044;-66
2022/04/26 05:59:23;;;;;;;33.25;17.42;;;8.00;99.90;;;;;;5024727;28;20523;-66
2022/04/26 06:01:49;;;;;;;29.15;17.25;;;8.10;99.90;;;;;;5028632;28;20064;-66
2022/04/26 06:04:15;;;;;;;27.27;16.73;;;8.20;99.90;;;;;;5021932;28;20084;-66
2022/04/26 06:06:41;;;;;;;32.50;16.50;;;8.20;99.90;;;;;;5026794;28;20038;-66
2022/04/26 06:09:07;;;;;;;28.27;15.93;;;8.20;99.90;;;;;;5021453;28;20060;-67
2022/04/26 06:11:33;;;;;;;22.95;15.30;;;8.30;99.90;;;;;;5021799;28;20084;-67
2022/04/26 06:14:01;;;;;;;18.23;14.88;;;8.40;99.90;;;;;;5020879;28;20057;-68
2022/04/26 06:16:28;;;;;;;27.27;15.98;;;8.40;99.90;;;;;;5026377;28;20057;-68
2022/04/26 06:18:54;;;;;;;23.33;15.52;;;8.40;99.90;;;;;;5027041;28;20046;-67
2022/04/26 06:21:20;;;;;;;39.97;16.25;;;8.50;99.90;;;;;;5024855;28;20191;-67
2022/04/26 06:23:46;;;;;;;32.22;17.10;;;8.60;99.90;;;;;;5023012;28;20660;-67
2022/04/26 06:26:12;;;;;;;32.45;16.60;;;8.70;99.90;;;;;;5022685;28;20041;-68
2022/04/26 06:28:38;;;;;;;24.48;17.00;;;8.70;99.90;;;;;;5027484;28;20053;-67
2022/04/26 06:31:04;;;;;;;29.27;16.98;;;8.70;99.90;;;;;;5028981;28;20053;-68
2022/04/26 06:33:30;;;;;;;27.95;15.45;;;8.70;99.90;;;;;;5028665;28;20461;-67
2022/04/26 06:35:55;;;;;;;23.27;15.48;;;8.70;99.90;;;;;;5028498;28;20140;-69
2022/04/26 06:38:22;;;;;;;30.52;15.52;;;8.80;99.90;;;;;;5027271;28;20037;-68
2022/04/26 06:40:48;;;;;;;27.90;15.18;;;8.80;99.90;;;;;;5027505;28;20091;-67
2022/04/26 06:43:14;;;;;;;22.65;15.45;;;8.90;99.90;;;;;;5025185;28;20532;-67
2022/04/26 06:45:40;;;;;;;23.27;14.95;;;8.90;99.90;;;;;;5020493;28;20076;-68
2022/04/26 06:48:11;;;;;;;22.48;14.30;;;8.90;99.90;;;;;;5024118;28;20414;-67
2022/04/26 06:50:38;;;;;;;24.08;14.20;;;9.00;99.90;;;;;;5025846;28;20168;-66
2022/04/26 06:53:04;;;;;;;23.85;15.23;;;9.00;99.90;;;;;;5024403;28;20056;-67
2022/04/26 06:55:30;;;;;;;24.73;15.45;;;9.00;99.90;;;;;;5027232;28;20049;-66
2022/04/26 06:57:56;;;;;;;23.35;14.63;;;9.00;99.90;;;;;;5024808;28;20072;-66
2022/04/26 07:00:22;;;;;;;21.42;13.95;;;9.10;99.90;;;;;;5026488;28;20221;-66
2022/04/26 07:02:47;;;;;;;30.42;13.77;;;9.10;99.90;;;;;;5024019;28;20163;-67
2022/04/26 07:05:14;;;;;;;24.60;14.00;;;9.10;99.90;;;;;;5025597;28;20793;-67
2022/04/26 07:07:41;;;;;;;23.50;14.20;;;9.10;99.90;;;;;;5021727;28;20528;-67
2022/04/26 07:10:07;;;;;;;29.25;13.25;;;9.10;99.90;;;;;;5025013;28;20103;-67
2022/04/26 07:12:33;;;;;;;27.15;12.30;;;9.10;99.90;;;;;;5025832;28;20095;-66
2022/04/26 07:14:59;;;;;;;16.58;11.77;;;9.20;99.90;;;;;;5025512;28;20078;-66
2022/04/26 07:17:26;;;;;;;24.92;12.63;;;9.20;99.90;;;;;;5024594;28;20175;-67
2022/04/26 07:19:52;;;;;;;20.00;12.57;;;9.30;99.90;;;;;;5024801;28;20049;-66
2022/04/26 07:22:18;;;;;;;14.82;12.48;;;9.40;99.90;;;;;;5022688;28;20041;-67
2022/04/26 07:24:46;;;;;;;14.27;11.25;;;9.50;99.90;;;;;;5027623;28;20486;-67
2022/04/26 07:27:12;;;;;;;;;;;9.50;99.90;;;;;;5005663;28;20560;-67
2022/04/26 07:29:42;;;;;;;27.35;12.93;;;9.50;99.90;;;;;;5024721;28;19921;-66
2022/04/26 07:32:08;;;;;;;20.85;11.98;;;9.50;99.90;;;;;;5023422;28;20100;-65
2022/04/26 07:34:34;;;;;;;17.42;13.73;;;9.60;99.90;;;;;;5023216;28;20077;-65
2022/04/26 07:37:02;;;;;;;23.00;12.80;;;9.70;99.90;;;;;;5025056;28;20164;-64
2022/04/26 07:39:33;;;;;;;23.40;13.27;;;9.70;99.90;;;;;;5023686;28;20055;-65
2022/04/26 07:42:00;;;;;;;18.33;12.35;;;9.70;99.90;;;;;;5004640;28;21030;-65
2022/04/26 07:44:26;;;;;;;20.73;12.82;;;9.80;99.90;;;;;;5020476;28;20042;-64
2022/04/26 07:46:54;;;;;;;15.20;12.20;;;9.80;99.90;;;;;;5020758;28;20128;-64
2022/04/26 07:49:21;;;;;;;22.58;12.85;;;9.90;99.90;;;;;;5026180;28;20037;-65
2022/04/26 07:51:47;;;;;;;18.30;11.23;;;9.90;99.90;;;;;;5024334;28;20046;-64
2022/04/26 07:54:15;;;;;;;17.10;11.88;;;9.80;99.90;;;;;;5023207;28;20437;-64
2022/04/26 07:56:41;;;;;;;22.02;12.27;;;9.90;99.90;;;;;;5021935;28;20188;-64
2022/04/26 07:59:07;;;;;;;16.23;12.23;;;9.90;99.90;;;;;;5022006;28;20460;-65
2022/04/26 08:01:33;;;;;;;15.85;10.63;;;10.00;99.90;;;;;;5019401;28;20551;-64
2022/04/26 08:03:59;;;;;;;19.48;12.40;;;10.10;99.90;;;;;;5020574;28;20270;-64
2022/04/26 08:06:25;;;;;;;17.20;10.90;;;10.20;99.90;;;;;;5018780;28;20056;-64
2022/04/26 08:08:51;;;;;;;23.42;12.25;;;10.40;99.90;;;;;;5023466;28;20066;-65
2022/04/26 08:11:17;;;;;;;23.05;10.73;;;10.60;99.90;;;;;;5021433;28;20053;-64
2022/04/26 08:13:43;;;;;;;21.48;12.02;;;10.70;99.90;;;;;;5022714;28;20041;-65
2022/04/26 08:16:10;;;;;;;19.73;11.93;;;10.90;99.90;;;;;;5023613;28;20463;-64
2022/04/26 08:18:36;;;;;;;19.30;11.43;;;11.10;99.90;;;;;;5022116;28;20034;-64
2022/04/26 08:21:05;;;;;;;21.73;10.93;;;11.60;99.90;;;;;;5022844;28;20056;-65
2022/04/26 08:23:31;;;;;;;25.52;11.30;;;12.00;99.90;;;;;;5020990;28;20053;-65
2022/04/26 08:28:42;;;;;;;21.58;10.50;;;12.20;99.90;;;;;;5021887;28;20468;-65
2022/04/26 08:31:07;;;;;;;20.75;8.35;;;12.10;99.90;;;;;;5024441;28;20091;-64
2022/04/26 08:33:36;;;;;;;12.30;7.45;;;11.90;99.90;;;;;;5020664;28;20045;-65
2022/04/26 08:36:02;;;;;;;14.52;9.15;;;11.70;99.90;;;;;;5019524;28;20572;-64
2022/04/26 08:38:27;;;;;;;14.93;7.65;;;11.70;99.90;;;;;;5021420;28;20138;-65
2022/04/26 08:40:53;;;;;;;16.83;8.55;;;11.60;99.90;;;;;;5021168;28;20037;-65
2022/04/26 08:43:19;;;;;;;9.32;8.27;;;11.60;99.90;;;;;;5023011;28;20069;-65
2022/04/26 08:45:46;;;;;;;14.07;8.98;;;11.50;99.90;;;;;;5021218;28;20052;-67
2022/04/26 08:51:00;;;;;;;21.05;8.70;;;11.60;99.90;;;;;;5027165;28;20045;-67
2022/04/26 08:53:27;;;;;;;15.57;9.43;;;11.70;99.90;;;;;;5025396;28;20079;-67
2022/04/26 08:55:55;;;;;;;16.17;8.30;;;12.00;99.90;;;;;;5016848;28;20042;-67
2022/04/26 08:58:23;;;;;;;18.97;8.53;;;12.00;99.90;;;;;;5023872;28;20623;-66
2022/04/26 09:01:12;;;;;;;15.30;8.65;;;12.00;99.90;;;;;;5026754;28;20280;-66
2022/04/26 09:03:40;;;;;;;13.73;7.90;;;12.00;99.90;;;;;;5022599;28;20071;-67
2022/04/26 09:06:15;;;;;;;18.33;8.93;;;12.10;99.90;;;;;;5020565;28;20077;-67
2022/04/26 09:08:41;;;;;;;20.45;9.50;;;12.10;99.90;;;;;;5033038;28;20061;-67
2022/04/26 09:11:26;;;;;;;17.50;9.57;;;12.00;99.90;;;;;;5036050;28;20073;-67
2022/04/26 09:13:52;;;;;;;15.30;8.73;;;12.30;99.90;;;;;;5029502;28;20041;-67
2022/04/26 09:16:20;;;;;;;18.88;8.68;;;12.30;99.90;;;;;;5036811;28;20051;-66
2022/04/26 09:18:59;;;;;;;12.63;8.48;;;12.40;99.90;;;;;;5032948;28;20053;-67
2022/04/26 09:21:27;;;;;;;11.73;8.15;;;12.40;99.90;;;;;;5004330;28;20557;-66
2022/04/26 09:23:57;;;;;;;17.90;9.57;;;12.40;99.90;;;;;;5021420;28;20041;-65
2022/04/26 09:26:25;;;;;;;15.80;8.07;;;12.30;99.90;;;;;;5027480;28;20354;-68
2022/04/26 09:28:52;;;;;;;15.52;8.65;;;12.20;99.90;;;;;;5033402;28;20055;-64
2022/04/26 09:31:21;;;;;;;16.15;8.73;;;12.20;99.90;;;;;;5033033;28;20065;-64
2022/04/26 09:33:51;;;;;;;16.08;8.75;;;12.40;99.90;;;;;;5029866;28;20471;-65
2022/04/26 09:36:18;;;;;;;16.73;9.13;;;12.60;99.90;;;;;;5027629;28;20087;-64
2022/04/26 09:39:01;;;;;;;11.35;8.77;;;12.70;99.90;;;;;;5037269;28;20512;-65
2022/04/26 09:41:28;;;;;;;14.52;9.55;;;12.80;99.90;;;;;;5033364;28;20079;-64
2022/04/26 09:44:06;;;;;;;21.40;9.07;;;12.80;99.90;;;;;;5024830;28;20029;-67
2022/04/26 09:46:52;;;;;;;14.63;9.50;;;12.70;99.90;;;;;;5029360;28;20521;-67
2022/04/26 09:49:21;;;;;;;11.43;8.43;;;12.70;99.90;;;;;;5030559;28;20045;-66
2022/04/26 09:51:59;;;;;;;17.38;8.98;;;13.10;99.90;;;;;;5038254;28;20435;-67
2022/04/26 09:54:26;;;;;;;12.55;10.20;;;13.00;99.90;;;;;;5024179;28;20608;-66
2022/04/26 09:56:53;;;;;;;13.07;9.25;;;13.30;99.90;;;;;;5026148;28;20052;-66
2022/04/26 09:59:28;;;;;;;14.95;8.98;;;13.40;99.90;;;;;;5019901;28;20038;-66
2022/04/26 10:01:56;;;;;;;23.75;10.95;;;13.70;99.90;;;;;;5029822;28;20049;-66
2022/04/26 10:04:24;;;;;;;12.93;7.93;;;14.00;99.90;;;;;;5026550;28;20083;-66
2022/04/26 10:06:52;;;;;;;13.35;9.48;;;14.40;99.90;;;;;;5032428;28;20091;-66
2022/04/26 10:09:19;;;;;;;11.00;8.45;;;14.60;99.90;;;;;;5034355;28;20061;-66
2022/04/26 10:11:45;;;;;;;16.63;8.13;;;14.80;99.90;;;;;;5032615;28;20057;-66
2022/04/26 10:14:12;;;;;;;20.83;8.70;;;14.70;99.90;;;;;;5032971;28;20055;-66
2022/04/26 10:16:38;;;;;;;13.65;9.70;;;14.60;99.90;;;;;;5030383;28;20076;-66
2022/04/26 10:19:09;;;;;;;16.23;9.57;;;14.50;99.90;;;;;;5034009;28;20053;-66
2022/04/26 10:21:38;;;;;;;18.75;9.18;;;14.40;99.90;;;;;;5036335;28;20052;-66
2022/04/26 10:24:13;;;;;;;11.40;8.90;;;14.40;99.90;;;;;;5031509;28;20794;-66
2022/04/26 10:26:40;;;;;;;17.80;9.45;;;14.60;99.90;;;;;;5031126;28;20425;-66
2022/04/26 10:29:09;;;;;;;13.68;9.65;;;14.50;99.50;;;;;;5040644;28;20071;-66
2022/04/26 10:31:38;;;;;;;19.33;9.43;;;14.60;94.90;;;;;;5034641;28;20063;-66
2022/04/26 10:34:31;;;;;;;19.85;9.65;;;14.70;96.00;;;;;;5034703;28;20124;-66
2022/04/26 10:37:06;;;;;;;11.45;8.43;;;15.00;90.60;;;;;;5029116;28;20513;-65
2022/04/26 10:39:46;;;;;;;17.15;9.55;;;15.40;92.80;;;;;;5035063;28;20056;-65
2022/04/26 10:42:15;;;;;;;14.48;8.75;;;15.10;78.50;;;;;;5032254;28;20033;-66
2022/04/26 10:44:46;;;;;;;10.13;8.38;;;15.40;90.80;;;;;;5036472;28;20485;-65
2022/04/26 10:47:18;;;;;;;13.70;7.88;;;15.60;89.30;;;;;;5028986;28;20072;-66
2022/04/26 10:49:48;;;;;;;12.10;8.77;;;15.80;91.00;;;;;;5029440;28;20124;-66
2022/04/26 10:52:18;;;;;;;10.48;9.45;;;15.80;90.20;;;;;;5026487;28;20041;-66
2022/04/26 10:54:53;;;;;;;20.77;10.80;;;15.90;90.30;;;;;;5027381;28;20056;-66
2022/04/26 10:57:23;;;;;;;14.13;9.05;;;15.80;88.00;;;;;;5028886;28;20115;-66
2022/04/26 11:00:02;;;;;;;15.63;9.10;;;15.90;88.00;;;;;;5027643;28;20081;-65
2022/04/26 11:02:31;;;;;;;12.48;8.70;;;16.20;90.00;;;;;;5031647;28;20088;-66
2022/04/26 11:05:04;;;;;;;11.02;7.80;;;16.40;88.20;;;;;;5028271;28;20128;-65
2022/04/26 11:07:30;;;;;;;19.33;8.68;;;16.50;77.40;;;;;;5025773;28;20050;-66
2022/04/26 11:10:00;;;;;;;12.80;8.70;;;16.70;80.90;;;;;;5026691;28;20099;-66
2022/04/26 11:12:28;;;;;;;17.10;9.88;;;16.40;75.60;;;;;;5030461;28;20049;-66
2022/04/26 11:14:56;;;;;;;13.48;8.77;;;16.40;74.00;;;;;;5043106;28;20047;-66
2022/04/26 11:17:23;;;;;;;22.58;8.35;;;16.60;72.90;;;;;;5038428;28;20047;-66
2022/04/26 11:19:56;;;;;;;10.02;8.15;;;17.00;76.70;;;;;;5030919;28;20138;-66
2022/04/26 11:22:23;;;;;;;17.63;9.20;;;17.10;72.00;;;;;;5029190;28;20402;-66
2022/04/26 11:30:31;;;;;;;11.40;9.30;;;16.70;68.80;;;;;;5025681;28;20522;-66
2022/04/26 11:33:00;;;;;;;19.30;9.60;;;16.30;68.30;;;;;;5026915;28;20041;-66
2022/04/26 11:35:26;;;;;;;20.65;8.75;;;16.30;69.20;;;;;;5026009;28;20045;-66
2022/04/26 11:37:54;;;;;;;15.35;9.07;;;16.50;69.90;;;;;;5025940;28;20045;-66
2022/04/26 11:40:33;;;;;;;13.15;10.57;;;16.60;69.10;;;;;;5022980;28;20080;-66
2022/04/26 11:43:07;;;;;;;26.23;10.02;;;16.80;64.90;;;;;;5021306;28;20042;-66
2022/04/26 11:45:34;;;;;;;9.63;8.63;;;16.80;65.00;;;;;;5024268;28;20053;-67
2022/04/26 11:48:00;;;;;;;14.93;9.27;;;16.80;67.70;;;;;;5023109;28;20498;-66
2022/04/26 11:50:29;;;;;;;11.57;9.00;;;16.80;68.10;;;;;;5028671;28;20038;-66
2022/04/26 11:53:06;;;;;;;17.35;9.35;;;16.90;68.50;;;;;;5022829;28;20044;-66
2022/04/26 11:56:02;;;;;;;11.82;9.27;;;16.80;66.50;;;;;;5020500;28;20494;-66
2022/04/26 11:58:28;;;;;;;14.27;8.98;;;16.80;66.20;;;;;;5020136;28;20061;-66
2022/04/26 12:01:02;;;;;;;9.43;8.32;;;16.80;67.30;;;;;;5023671;28;20793;-66
2022/04/26 12:03:48;;;;;;;11.48;7.90;;;16.70;64.40;;;;;;5024791;28;20406;-67
2022/04/26 12:06:17;;;;;;;26.17;10.73;;;16.80;66.00;;;;;;5027369;28;20112;-67
2022/04/26 12:08:45;;;;;;;12.55;8.18;;;16.80;65.70;;;;;;5027781;28;20694;-67
2022/04/26 12:11:13;;;;;;;;;;;16.70;66.30;;;;;;5030263;28;20041;-67
2022/04/26 12:13:39;;;;;;;14.00;7.93;;;16.30;62.40;;;;;;5027239;28;20389;-67
2022/04/26 12:16:22;;;;;;;19.20;9.70;;;16.30;67.00;;;;;;5027862;28;20053;-67
2022/04/26 12:19:03;;;;;;;13.48;8.85;;;16.30;66.40;;;;;;5018288;28;20045;-66
2022/04/26 12:21:46;;;;;;;13.90;8.40;;;16.60;67.40;;;;;;5028255;28;20081;-66
2022/04/26 12:24:24;;;;;;;9.68;7.68;;;16.80;67.00;;;;;;5027535;28;20037;-67
2022/04/26 12:27:04;;;;;;;13.57;8.88;;;17.10;65.60;;;;;;5028015;28;20057;-67
2022/04/26 12:29:35;;;;;;;18.38;8.60;;;17.10;64.20;;;;;;5028021;28;20486;-67
2022/04/26 12:32:05;;;;;;;15.68;9.45;;;17.00;62.50;;;;;;5026416;28;20044;-67
2022/04/26 12:34:32;;;;;;;9.02;7.93;;;16.50;62.60;;;;;;5023506;28;20052;-67
2022/04/26 12:37:15;;;;;;;15.77;8.07;;;16.50;63.80;;;;;;5022223;28;20049;-67
2022/04/26 12:39:42;;;;;;;17.08;9.00;;;16.30;64.10;;;;;;5023761;28;20435;-67
2022/04/26 12:42:13;;;;;;;13.20;8.48;;;16.30;63.80;;;;;;5023402;28;20152;-67
2022/04/26 12:44:55;;;;;;;13.07;8.38;;;16.30;63.60;;;;;;5023799;28;20053;-67
2022/04/26 12:53:04;;;;;;;23.25;9.18;;;15.90;64.70;;;;;;5025948;28;20057;-66
2022/04/26 12:55:34;;;;;;;14.18;8.30;;;16.00;64.70;;;;;;5027208;28;20131;-67
2022/04/26 12:58:01;;;;;;;11.77;8.55;;;16.20;64.50;;;;;;5025340;28;20444;-67
2022/04/26 13:00:28;;;;;;;16.33;8.85;;;16.20;63.30;;;;;;5009324;28;20050;-67
2022/04/26 13:02:56;;;;;;;15.25;9.10;;;16.40;63.80;;;;;;5025656;28;20033;-67
2022/04/26 13:05:23;;;;;;;9.07;7.32;;;16.30;63.30;;;;;;5022248;28;20204;-67
2022/04/26 13:07:49;;;;;;;13.23;7.88;;;16.30;63.90;;;;;;5028040;28;20054;-67
2022/04/26 13:10:16;;;;;;;36.75;8.77;;;16.40;64.20;;;;;;5031719;28;20118;-68
2022/04/26 13:12:43;;;;;;;12.65;8.48;;;16.30;63.40;;;;;;5026873;28;20088;-67
2022/04/26 13:15:10;;;;;;;10.80;7.53;;;16.30;63.10;;;;;;5026066;28;20053;-68
2022/04/26 13:17:39;;;;;;;12.93;9.45;;;16.20;64.10;;;;;;5027234;28;20041;-67
2022/04/26 13:20:07;;;;;;;9.10;7.88;;;16.10;64.10;;;;;;5027817;28;20068;-67
2022/04/26 13:22:34;;;;;;;12.25;8.30;;;16.10;63.30;;;;;;5028686;28;20527;-67
2022/04/26 13:25:03;;;;;;;12.23;7.10;;;15.90;61.80;;;;;;5027621;28;20129;-67
2022/04/26 13:27:32;;;;;;;14.80;7.95;;;15.90;63.30;;;;;;5026616;28;20084;-67
2022/04/26 13:29:59;;;;;;;11.73;7.95;;;15.90;63.40;;;;;;5034347;28;20513;-67
2022/04/26 13:32:25;;;;;;;10.82;7.55;;;15.90;63.40;;;;;;5031769;28;20467;-67
2022/04/26 13:34:52;;;;;;;8.93;7.72;;;16.10;64.00;;;;;;5028494;28;20030;-67
2022/04/26 13:37:19;;;;;;;11.35;8.43;;;16.10;63.30;;;;;;5024760;28;20046;-67
2022/04/26 13:39:45;;;;;;;7.70;6.82;;;16.10;61.70;;;;;;5021161;28;20042;-67
2022/04/26 13:42:12;;;;;;;12.65;7.88;;;15.90;59.70;;;;;;5017614;28;20567;-67
2022/04/26 13:44:38;;;;;;;10.65;7.95;;;16.00;60.50;;;;;;5022319;28;20077;-67
2022/04/26 13:47:06;;;;;;;8.80;7.18;;;16.20;59.80;;;;;;5022596;28;21643;-67
2022/04/26 13:49:35;;;;;;;11.70;6.78;;;16.10;58.70;;;;;;5020170;28;20461;-68
2022/04/26 13:52:05;;;;;;;9.45;7.43;;;16.10;59.30;;;;;;5020906;28;20041;-67
2022/04/26 13:54:31;;;;;;;13.25;7.20;;;16.10;58.90;;;;;;5021632;28;20053;-67
2022/04/26 13:56:57;;;;;;;14.20;8.20;;;16.30;59.90;;;;;;5025724;28;20045;-67
2022/04/26 13:59:25;;;;;;;12.80;6.78;;;16.20;57.70;;;;;;5026406;28;20037;-67
2022/04/26 14:01:52;;;;;;;8.05;7.05;;;15.70;57.10;;;;;;5018902;28;20042;-67
2022/04/26 14:04:19;;;;;;;11.43;7.22;;;15.70;57.80;;;;;;5025878;28;20029;-67
2022/04/26 14:06:46;;;;;;;14.45;7.57;;;15.70;58.10;;;;;;5024859;28;20911;-67
2022/04/26 14:09:12;;;;;;;14.73;7.22;;;15.70;57.90;;;;;;5028437;28;20049;-67
2022/04/26 14:11:38;;;;;;;11.10;6.97;;;15.80;56.70;;;;;;5025953;28;20049;-66
2022/04/26 14:22:16;;;;;;;9.82;6.03;;;15.60;57.80;;;;;;5034272;28;20060;-66
2022/04/26 14:24:43;;;;;;;16.65;7.03;;;15.60;58.60;;;;;;5026904;28;20041;-66
2022/04/26 14:27:10;;;;;;;33.65;11.85;;;15.60;58.20;;;;;;5028186;28;20130;-66
2022/04/26 14:29:36;;;;;;;8.70;6.90;;;15.70;58.80;;;;;;5028648;28;20667;-65
2022/04/26 14:32:02;;;;;;;11.32;7.60;;;15.80;60.10;;;;;;5029059;28;20175;-65
2022/04/26 14:34:29;;;;;;;11.40;7.05;;;15.90;59.00;;;;;;5025619;28;20127;-65
2022/04/26 14:36:55;;;;;;;10.13;6.78;;;15.80;59.10;;;;;;5029131;28;20049;-65
2022/04/26 14:39:22;;;;;;;14.07;7.32;;;15.70;59.80;;;;;;5028924;28;20414;-65
2022/04/26 14:41:47;;;;;;;8.15;6.05;;;15.80;61.80;;;;;;5028429;28;20045;-66
2022/04/26 14:44:13;;;;;;;10.95;7.75;;;16.00;60.60;;;;;;5027830;28;20556;-66
2022/04/26 14:46:39;;;;;;;8.80;7.45;;;16.00;60.50;;;;;;5028942;28;20038;-65
2022/04/26 14:49:06;;;;;;;9.85;7.63;;;16.00;60.00;;;;;;5028430;28;20037;-66
2022/04/26 14:51:32;;;;;;;11.10;6.78;;;16.00;59.30;;;;;;5029280;28;20116;-66
2022/04/26 14:53:58;;;;;;;14.85;6.65;;;16.00;59.40;;;;;;5028365;28;20052;-66
2022/04/26 14:56:24;;;;;;;13.45;6.57;;;16.10;59.90;;;;;;5029782;28;20045;-66
2022/04/26 14:58:50;;;;;;;11.95;6.13;;;16.10;59.50;;;;;;5025031;28;20245;-66
2022/04/26 15:01:16;;;;;;;10.57;8.10;;;16.00;59.60;;;;;;5026219;28;20076;-66
2022/04/26 15:03:44;;;;;;;18.80;7.95;;;15.90;58.60;;;;;;5026076;28;20045;-65
2022/04/26 15:06:13;;;;;;;24.03;8.43;;;15.90;60.50;;;;;;5026285;28;20049;-66
2022/04/26 15:11:35;;;;;;;10.07;7.57;;;15.80;60.70;;;;;;4994964;28;20065;-65
2022/04/26 15:16:46;;;;;;;14.80;8.50;;;15.70;60.20;;;;;;5022559;28;20574;-65
2022/04/26 15:19:13;;;;;;;13.70;7.80;;;15.70;61.50;;;;;;5028225;28;20041;-65
2022/04/26 15:21:42;;;;;;;24.27;9.57;;;15.80;61.10;;;;;;5027114;28;20053;-65
2022/04/26 15:24:07;;;;;;;;;;;15.70;60.70;;;;;;5027062;28;21977;-65
2022/04/26 15:26:34;;;;;;;15.63;9.30;;;15.70;61.60;;;;;;5024969;28;19963;-65
2022/04/26 15:29:01;;;;;;;9.65;8.07;;;15.70;61.70;;;;;;5026779;28;20410;-65
2022/04/26 15:31:27;;;;;;;11.52;8.38;;;15.70;62.60;;;;;;5017609;28;20506;-66
2022/04/26 15:33:53;;;;;;;11.10;7.95;;;15.70;62.10;;;;;;5027058;28;20095;-66
2022/04/26 15:36:20;;;;;;;12.32;8.85;;;15.50;62.20;;;;;;5023813;28;20053;-66
2022/04/26 15:38:47;;;;;;;17.85;9.50;;;15.50;62.30;;;;;;5023925;28;20510;-66
2022/04/26 15:41:14;;;;;;;13.80;8.55;;;15.50;63.30;;;;;;5022564;28;21284;-66
2022/04/26 15:43:40;;;;;;;13.40;9.05;;;15.50;63.30;;;;;;5024660;28;20054;-66
2022/04/26 15:46:09;;;;;;;20.63;8.57;;;15.50;62.80;;;;;;5026027;28;20573;-66
2022/04/26 15:48:38;;;;;;;;;;;15.30;62.70;;;;;;5026470;28;20457;-66
2022/04/26 15:51:06;;;;;;;11.25;8.65;;;15.20;61.80;;;;;;5020881;28;19979;-66
2022/04/26 15:53:33;;;;;;;18.63;9.63;;;15.30;64.00;;;;;;5021236;28;20080;-67
2022/04/26 15:56:00;;;;;;;12.98;8.52;;;15.20;63.30;;;;;;5022630;28;20081;-66
2022/04/26 15:58:26;;;;;;;13.98;8.48;;;15.20;62.70;;;;;;5022098;28;20099;-66
2022/04/26 16:00:55;;;;;;;15.88;7.90;;;15.10;62.30;;;;;;5024777;28;20046;-66
2022/04/26 16:03:20;;;;;;;11.07;8.02;;;15.10;63.40;;;;;;5004373;28;20076;-66
2022/04/26 16:05:47;;;;;;;9.38;7.60;;;15.10;62.60;;;;;;5024074;28;20482;-66
2022/04/26 16:08:13;;;;;;;13.13;8.60;;;15.00;63.10;;;;;;5021668;28;20136;-66
2022/04/26 16:21:37;;;;;;;16.35;6.97;;;14.70;62.70;;;;;;5024885;28;20050;-67
2022/04/26 16:24:04;;;;;;;15.45;7.75;;;14.70;63.60;;;;;;5021188;28;20068;-67
2022/04/26 16:26:34;;;;;;;16.48;8.85;;;14.60;63.40;;;;;;5021180;28;20120;-67
2022/04/26 16:29:00;;;;;;;8.65;6.50;;;14.40;63.50;;;;;;5023148;28;20052;-67
2022/04/26 16:31:28;;;;;;;13.25;8.20;;;14.30;63.90;;;;;;5021363;28;20414;-67
2022/04/26 16:33:57;;;;;;;18.17;8.32;;;14.30;64.50;;;;;;5018414;28;20033;-67
2022/04/26 16:36:25;;;;;;;9.02;7.25;;;14.20;64.40;;;;;;5024009;28;20156;-67
2022/04/26 16:38:51;;;;;;;12.50;8.27;;;14.10;64.30;;;;;;5023609;28;20080;-67
2022/04/26 16:41:17;;;;;;;9.32;7.10;;;13.90;64.40;;;;;;5026166;28;20054;-67
2022/04/26 16:43:43;;;;;;;19.55;8.27;;;13.90;65.00;;;;;;5023238;28;20045;-67
2022/04/26 16:46:11;;;;;;;11.80;8.05;;;13.70;64.60;;;;;;5025158;28;20490;-67
2022/04/26 16:48:36;;;;;;;14.93;8.63;;;13.70;65.30;;;;;;5025093;28;20049;-67
2022/04/26 16:51:02;;;;;;;15.02;9.15;;;13.60;65.70;;;;;;5020199;28;20049;-67
2022/04/26 16:53:29;;;;;;;12.55;10.55;;;13.50;66.00;;;;;;5024646;28;20037;-67
2022/04/26 16:55:56;;;;;;;13.60;9.83;;;13.40;66.80;;;;;;5025124;28;20039;-67
2022/04/26 16:58:23;;;;;;;17.30;9.32;;;13.20;67.40;;;;;;5023706;28;20894;-67
2022/04/26 17:00:48;;;;;;;9.63;7.88;;;13.20;68.10;;;;;;5027089;28;20491;-65
2022/04/26 17:03:15;;;;;;;14.32;7.95;;;13.00;69.20;;;;;;5026156;28;20042;-66